Time;durP1;ratioP1;P1;durP2;ratioP2;P2;SDS_P1;SDS_P2;PMS_P1;PMS_P2;Temp;Humidity;BMP_temperature;BMP_pressure;BME280_temperature;BME280_humidity;BME280_pressure;Samples;Min_cycle;Max_cycle;Signal;HPM_P1;HPM_P2
2024/01/25 00:01:39;;;;;;;22.70;5.00;;;7.00;99.90;;;;;;5006334;28;20058;-34
2024/01/25 00:04:05;;;;;;;20.80;3.63;;;7.00;99.90;;;;;;5013704;28;20399;-34
2024/01/25 00:06:30;;;;;;;24.67;3.20;;;7.00;99.90;;;;;;5012895;28;20103;-34
2024/01/25 00:08:56;;;;;;;24.33;3.40;;;6.90;99.90;;;;;;5012580;28;20076;-34
2024/01/25 00:11:22;;;;;;;18.88;2.97;;;6.90;99.90;;;;;;5013519;28;20051;-33
2024/01/25 00:13:47;;;;;;;22.25;3.80;;;6.90;99.90;;;;;;5013593;28;20038;-34
2024/01/25 00:16:13;;;;;;;23.17;3.55;;;6.90;99.90;;;;;;5022086;28;20045;-34
2024/01/25 00:18:39;;;;;;;22.40;4.35;;;6.90;99.90;;;;;;5018846;28;20711;-34
2024/01/25 00:21:04;;;;;;;22.63;3.53;;;6.80;99.90;;;;;;5019907;28;20119;-34
2024/01/25 00:23:32;;;;;;;27.48;4.60;;;6.80;99.90;;;;;;5021357;28;20519;-34
2024/01/25 00:25:59;;;;;;;17.55;3.25;;;6.80;99.90;;;;;;5023479;28;20132;-34
2024/01/25 00:28:28;;;;;;;26.98;4.03;;;6.70;99.90;;;;;;5022724;28;20091;-34
2024/01/25 00:30:54;;;;;;;20.60;3.92;;;6.70;99.90;;;;;;5030872;28;20049;-34
2024/01/25 00:33:20;;;;;;;25.02;3.47;;;6.70;99.90;;;;;;5031464;28;20061;-34
2024/01/25 00:35:46;;;;;;;21.27;3.72;;;6.70;99.90;;;;;;5026337;28;20102;-34
2024/01/25 00:38:12;;;;;;;23.80;3.78;;;6.60;99.90;;;;;;5021682;28;20103;-34
2024/01/25 00:40:39;;;;;;;23.27;4.10;;;6.60;99.90;;;;;;5017841;28;20562;-34
2024/01/25 00:43:05;;;;;;;28.63;4.18;;;6.60;99.90;;;;;;5019488;28;20071;-34
2024/01/25 00:45:31;;;;;;;22.25;3.97;;;6.60;99.90;;;;;;5023131;28;20134;-34
2024/01/25 00:47:57;;;;;;;22.73;5.25;;;6.50;99.90;;;;;;5021567;28;20057;-33
2024/01/25 00:50:25;;;;;;;22.38;3.63;;;6.50;99.90;;;;;;5021137;28;20064;-34
2024/01/25 00:52:51;;;;;;;22.55;3.00;;;6.50;99.90;;;;;;5023071;28;20055;-33
2024/01/25 00:55:18;;;;;;;20.98;4.15;;;6.50;99.90;;;;;;5022718;28;20041;-34
2024/01/25 00:57:44;;;;;;;23.17;3.92;;;6.50;99.90;;;;;;5037220;28;20057;-34
2024/01/25 01:00:10;;;;;;;23.85;3.38;;;6.50;99.90;;;;;;5020987;28;20120;-34
2024/01/25 01:02:45;;;;;;;22.50;3.38;;;6.50;99.90;;;;;;5028170;28;20141;-35
2024/01/25 01:05:11;;;;;;;26.45;3.70;;;6.60;99.90;;;;;;5038432;28;20042;-33
2024/01/25 01:07:40;;;;;;;27.58;3.95;;;6.60;99.90;;;;;;5031461;28;20419;-34
2024/01/25 01:10:07;;;;;;;23.60;4.18;;;6.60;99.90;;;;;;5025826;28;20057;-34
2024/01/25 01:12:33;;;;;;;20.75;4.05;;;6.60;99.90;;;;;;5023172;28;20513;-33
2024/01/25 01:14:59;;;;;;;27.85;4.28;;;6.50;99.90;;;;;;5027184;28;20045;-34
2024/01/25 01:17:24;;;;;;;21.83;3.72;;;6.50;99.90;;;;;;5030846;28;20461;-34
2024/01/25 01:19:50;;;;;;;19.13;3.28;;;6.50;99.90;;;;;;5027331;28;20057;-34
2024/01/25 01:22:15;;;;;;;28.38;3.55;;;6.50;99.90;;;;;;5024625;28;20051;-34
2024/01/25 01:24:41;;;;;;;24.45;4.18;;;6.50;99.90;;;;;;5026045;28;20100;-35
2024/01/25 01:27:07;;;;;;;30.30;4.20;;;6.50;99.90;;;;;;5026172;28;20141;-35
2024/01/25 01:29:33;;;;;;;20.83;3.53;;;6.50;99.90;;;;;;5031055;28;20047;-35
2024/01/25 01:31:58;;;;;;;25.38;4.00;;;6.50;99.90;;;;;;5021269;28;20054;-35
2024/01/25 01:34:24;;;;;;;20.95;4.25;;;6.40;99.90;;;;;;5013265;28;20052;-35
2024/01/25 01:36:50;;;;;;;28.60;4.32;;;6.40;99.90;;;;;;5027063;28;20057;-35
2024/01/25 01:39:16;;;;;;;26.20;3.85;;;6.30;99.90;;;;;;5012447;28;20057;-35
2024/01/25 01:41:41;;;;;;;20.45;3.97;;;6.30;99.90;;;;;;5015600;28;20053;-34
2024/01/25 01:44:07;;;;;;;25.88;4.05;;;6.30;99.90;;;;;;5021053;28;20050;-34
2024/01/25 01:46:40;;;;;;;23.63;3.65;;;6.30;99.90;;;;;;5021294;28;20076;-34
2024/01/25 01:49:12;;;;;;;31.25;4.00;;;6.30;99.90;;;;;;5028491;28;20058;-34
2024/01/25 01:51:39;;;;;;;20.48;4.68;;;6.30;99.90;;;;;;5021440;28;20052;-34
2024/01/25 01:54:09;;;;;;;15.70;3.20;;;6.30;99.90;;;;;;5025886;28;20056;-33
2024/01/25 01:56:35;;;;;;;20.00;3.20;;;6.30;99.90;;;;;;5027793;28;20065;-34
2024/01/25 01:59:04;;;;;;;23.60;4.15;;;6.30;99.90;;;;;;5029134;28;20053;-34
2024/01/25 02:01:29;;;;;;;21.42;4.43;;;6.30;99.90;;;;;;5026896;28;20047;-34
2024/01/25 02:03:55;;;;;;;28.67;4.28;;;6.20;99.90;;;;;;5023861;28;20049;-34
2024/01/25 02:06:23;;;;;;;21.08;3.85;;;6.30;99.90;;;;;;5025131;28;20050;-34
2024/01/25 02:08:50;;;;;;;32.42;5.28;;;6.20;99.90;;;;;;5023745;28;20053;-34
2024/01/25 02:11:17;;;;;;;28.13;4.22;;;6.20;99.90;;;;;;5026441;28;20110;-35
2024/01/25 02:13:43;;;;;;;25.13;4.47;;;6.20;99.90;;;;;;5014076;28;20079;-36
2024/01/25 02:16:09;;;;;;;21.58;3.42;;;6.20;99.90;;;;;;5006533;28;20514;-35
2024/01/25 02:18:35;;;;;;;28.00;4.50;;;6.20;99.90;;;;;;5025905;28;20129;-34
2024/01/25 02:21:01;;;;;;;25.65;4.03;;;6.20;99.90;;;;;;5024562;28;20445;-35
2024/01/25 02:23:27;;;;;;;25.58;4.22;;;6.20;99.90;;;;;;5028639;28;20788;-35
2024/01/25 02:25:53;;;;;;;24.15;4.25;;;6.10;99.90;;;;;;5024430;28;20056;-33
2024/01/25 02:28:18;;;;;;;24.42;3.67;;;6.10;99.90;;;;;;5027899;28;20419;-34
2024/01/25 02:30:44;;;;;;;29.77;4.30;;;6.10;99.90;;;;;;5022076;28;20045;-33
2024/01/25 02:33:10;;;;;;;28.63;5.32;;;6.10;99.90;;;;;;5027087;28;20053;-34
2024/01/25 02:35:37;;;;;;;29.42;4.13;;;6.10;99.90;;;;;;5021512;28;20049;-34
2024/01/25 02:38:03;;;;;;;26.30;3.92;;;6.00;99.90;;;;;;5024569;28;20132;-34
2024/01/25 02:40:29;;;;;;;26.55;4.05;;;6.00;99.90;;;;;;5033621;28;20447;-33
2024/01/25 02:42:56;;;;;;;22.98;4.15;;;6.00;99.90;;;;;;5027197;28;20052;-34
2024/01/25 02:45:22;;;;;;;28.13;4.75;;;6.00;99.90;;;;;;5027254;28;20487;-34
2024/01/25 02:47:48;;;;;;;25.58;6.00;;;6.00;99.90;;;;;;5023837;28;20049;-34
2024/01/25 02:50:14;;;;;;;23.58;4.07;;;5.90;99.90;;;;;;5022948;28;20466;-34
2024/01/25 02:52:39;;;;;;;23.25;4.25;;;6.00;99.90;;;;;;5023982;28;20048;-34
2024/01/25 02:55:05;;;;;;;27.55;4.55;;;6.00;99.90;;;;;;5023132;28;20120;-34
2024/01/25 02:57:34;;;;;;;27.95;4.90;;;6.00;99.90;;;;;;5026009;28;20068;-34
2024/01/25 03:00:00;;;;;;;22.10;4.10;;;5.90;99.90;;;;;;5026059;28;20057;-34
2024/01/25 03:02:25;;;;;;;28.52;3.75;;;6.00;99.90;;;;;;5023745;28;20485;-34
2024/01/25 03:04:51;;;;;;;23.48;3.78;;;6.00;99.90;;;;;;5023301;28;20062;-34
2024/01/25 03:07:17;;;;;;;30.20;5.13;;;5.90;99.90;;;;;;5023407;28;20056;-34
2024/01/25 03:09:42;;;;;;;30.42;3.92;;;5.90;99.90;;;;;;5020904;28;20057;-34
2024/01/25 03:12:08;;;;;;;23.40;4.70;;;5.80;99.90;;;;;;5024655;28;20048;-34
2024/01/25 03:14:34;;;;;;;29.58;5.18;;;5.80;99.90;;;;;;5023091;28;20061;-34
2024/01/25 03:17:00;;;;;;;21.40;4.13;;;5.80;99.90;;;;;;5024157;28;20080;-35
2024/01/25 03:19:27;;;;;;;33.33;4.22;;;5.80;99.90;;;;;;5022190;28;20057;-34
2024/01/25 03:21:54;;;;;;;26.40;4.65;;;5.80;99.90;;;;;;5023473;28;20057;-34
2024/01/25 03:24:20;;;;;;;22.67;3.85;;;5.80;99.90;;;;;;5026526;28;20060;-35
2024/01/25 03:26:46;;;;;;;23.80;4.20;;;5.80;99.90;;;;;;5027255;28;20503;-34
2024/01/25 03:29:12;;;;;;;31.58;3.83;;;5.80;99.90;;;;;;5028927;28;20049;-35
2024/01/25 03:31:38;;;;;;;27.80;4.78;;;5.80;99.90;;;;;;5025476;28;20051;-34
2024/01/25 03:34:04;;;;;;;29.05;4.95;;;5.70;99.90;;;;;;5024243;28;20116;-34
2024/01/25 03:36:31;;;;;;;34.30;5.93;;;5.70;99.90;;;;;;5023052;28;20059;-34
2024/01/25 03:38:57;;;;;;;27.67;5.47;;;5.60;99.90;;;;;;5023532;28;20049;-34
2024/01/25 03:41:23;;;;;;;30.10;4.68;;;5.60;99.90;;;;;;5029046;28;20048;-34
2024/01/25 03:43:49;;;;;;;26.00;4.55;;;5.60;99.90;;;;;;5024589;28;20052;-34
2024/01/25 03:46:15;;;;;;;22.35;4.20;;;5.60;99.90;;;;;;5033948;28;20049;-35
2024/01/25 03:48:41;;;;;;;22.45;4.60;;;5.60;99.90;;;;;;5006779;28;20052;-34
2024/01/25 03:51:07;;;;;;;25.20;4.50;;;5.50;99.90;;;;;;5009555;28;20045;-35
2024/01/25 03:53:32;;;;;;;27.73;4.85;;;5.50;99.90;;;;;;5023973;28;20053;-35
2024/01/25 03:55:58;;;;;;;34.67;4.38;;;5.50;99.90;;;;;;5026007;28;20478;-34
2024/01/25 03:58:24;;;;;;;27.90;4.65;;;5.50;99.90;;;;;;5024874;28;20054;-33
2024/01/25 04:00:50;;;;;;;30.00;4.70;;;5.50;99.90;;;;;;5026294;28;20045;-33
2024/01/25 04:03:15;;;;;;;22.20;4.25;;;5.50;99.90;;;;;;5029479;28;20065;-34
2024/01/25 04:05:41;;;;;;;23.20;3.70;;;5.40;99.90;;;;;;5021276;28;20053;-34
2024/01/25 04:08:07;;;;;;;24.80;4.05;;;5.40;99.90;;;;;;5010373;28;20205;-34
2024/01/25 04:10:33;;;;;;;29.48;4.25;;;5.40;99.90;;;;;;5024733;28;20049;-34
2024/01/25 04:13:04;;;;;;;23.92;4.50;;;5.40;99.90;;;;;;5020662;28;20605;-34
2024/01/25 04:15:30;;;;;;;29.45;4.38;;;5.30;99.90;;;;;;5025845;28;20049;-34
2024/01/25 04:17:56;;;;;;;26.05;5.15;;;5.30;99.90;;;;;;5019101;28;20483;-34
2024/01/25 04:20:22;;;;;;;26.30;3.95;;;5.30;99.90;;;;;;5024503;28;20046;-34
2024/01/25 04:22:48;;;;;;;27.55;4.57;;;5.30;99.90;;;;;;5021092;28;20495;-34
2024/01/25 04:25:14;;;;;;;22.63;4.53;;;5.30;99.90;;;;;;5025936;28;20054;-34
2024/01/25 04:27:40;;;;;;;26.00;4.82;;;5.30;99.90;;;;;;5022479;28;20074;-35
2024/01/25 04:30:08;;;;;;;26.27;4.72;;;5.20;99.90;;;;;;5024081;28;20058;-34
2024/01/25 04:32:34;;;;;;;24.48;4.32;;;5.20;99.90;;;;;;5024091;28;20049;-34
2024/01/25 04:35:00;;;;;;;25.83;4.97;;;5.30;99.90;;;;;;5022581;28;20053;-34
2024/01/25 04:37:25;;;;;;;30.88;4.07;;;5.20;99.90;;;;;;5025912;28;20068;-35
2024/01/25 04:39:51;;;;;;;26.55;4.40;;;5.20;99.90;;;;;;5023380;28;20106;-34
2024/01/25 04:42:17;;;;;;;23.58;3.70;;;5.10;99.90;;;;;;5023982;28;20057;-35
2024/01/25 04:44:43;;;;;;;26.15;3.92;;;5.10;99.90;;;;;;5022768;28;20068;-35
2024/01/25 04:47:09;;;;;;;18.17;3.65;;;5.10;99.90;;;;;;5023899;28;20063;-34
2024/01/25 04:49:35;;;;;;;26.95;3.80;;;5.10;99.90;;;;;;5028978;28;20100;-34
2024/01/25 04:52:01;;;;;;;27.98;4.20;;;5.00;99.90;;;;;;5026331;28;20042;-34
2024/01/25 04:54:27;;;;;;;26.20;4.63;;;5.00;99.90;;;;;;5031291;28;20207;-34
2024/01/25 04:56:53;;;;;;;29.75;4.50;;;5.00;99.90;;;;;;5029964;28;20037;-35
2024/01/25 04:59:18;;;;;;;32.35;4.80;;;5.00;99.90;;;;;;5033643;28;20045;-34
2024/01/25 05:01:44;;;;;;;28.92;4.60;;;4.90;99.90;;;;;;5026969;28;20454;-34
2024/01/25 05:04:10;;;;;;;26.08;4.22;;;5.00;99.90;;;;;;5029497;28;20041;-35
2024/01/25 05:06:36;;;;;;;28.55;4.30;;;5.00;99.90;;;;;;5029239;28;20052;-35
2024/01/25 05:09:02;;;;;;;21.27;4.00;;;4.90;99.90;;;;;;5028265;28;20049;-33
2024/01/25 05:11:28;;;;;;;25.25;3.63;;;4.80;99.90;;;;;;5025469;28;20046;-33
2024/01/25 05:13:54;;;;;;;24.08;3.95;;;4.70;99.90;;;;;;5027697;28;20059;-34
2024/01/25 05:16:19;;;;;;;29.02;4.28;;;4.50;99.90;;;;;;5027255;28;20140;-34
2024/01/25 05:18:45;;;;;;;27.15;3.92;;;4.40;99.90;;;;;;5024955;28;20045;-34
2024/01/25 05:21:11;;;;;;;28.30;4.78;;;4.30;99.90;;;;;;5028496;28;20465;-34
2024/01/25 05:23:37;;;;;;;27.52;3.83;;;4.10;99.90;;;;;;5033227;28;20426;-34
2024/01/25 05:26:02;;;;;;;27.85;3.72;;;4.10;99.90;;;;;;5023093;28;20410;-34
2024/01/25 05:28:28;;;;;;;27.08;3.95;;;4.00;99.90;;;;;;5024567;28;20058;-34
2024/01/25 05:30:54;;;;;;;22.15;3.50;;;4.10;99.90;;;;;;5025333;28;20415;-34
2024/01/25 05:33:19;;;;;;;25.35;3.85;;;4.10;99.90;;;;;;5029969;28;20068;-34
2024/01/25 05:35:45;;;;;;;27.65;3.95;;;4.00;99.90;;;;;;5025570;28;20124;-34
2024/01/25 05:38:11;;;;;;;24.17;3.83;;;4.00;99.90;;;;;;5024589;28;20064;-34
2024/01/25 05:40:36;;;;;;;31.80;5.15;;;3.90;99.90;;;;;;5026214;28;20514;-34
2024/01/25 05:43:03;;;;;;;28.83;3.78;;;3.90;99.90;;;;;;5027340;28;20403;-34
2024/01/25 05:45:28;;;;;;;28.77;4.32;;;3.90;99.90;;;;;;5025963;28;20102;-34
2024/01/25 05:47:54;;;;;;;29.60;4.38;;;3.90;99.90;;;;;;5029183;28;20493;-34
2024/01/25 05:50:20;;;;;;;30.00;4.88;;;3.90;99.90;;;;;;5025665;28;20049;-34
2024/01/25 05:52:46;;;;;;;25.08;3.92;;;3.80;99.90;;;;;;5028064;28;20049;-34
2024/01/25 05:55:14;;;;;;;26.58;4.47;;;3.80;99.90;;;;;;5025866;28;20112;-34
2024/01/25 05:57:42;;;;;;;29.13;4.20;;;3.70;99.90;;;;;;5026740;28;20049;-34
2024/01/25 06:00:08;;;;;;;29.48;4.35;;;3.70;99.90;;;;;;5030403;28;20406;-34
2024/01/25 06:02:34;;;;;;;27.10;4.45;;;3.70;99.90;;;;;;5024483;28;20057;-34
2024/01/25 06:05:00;;;;;;;21.90;4.47;;;3.70;99.90;;;;;;5029445;28;20041;-34
2024/01/25 06:07:26;;;;;;;30.02;4.10;;;3.70;99.90;;;;;;5026307;28;20060;-34
2024/01/25 06:09:52;;;;;;;34.22;5.25;;;3.70;99.90;;;;;;5027355;28;20057;-35
2024/01/25 06:12:18;;;;;;;31.73;6.10;;;3.80;99.90;;;;;;5021498;28;20506;-33
2024/01/25 06:14:44;;;;;;;47.15;5.47;;;3.80;99.90;;;;;;5024953;28;20052;-33
2024/01/25 06:17:10;;;;;;;28.98;5.13;;;3.90;99.90;;;;;;5023820;28;20127;-33
2024/01/25 06:19:36;;;;;;;20.55;4.43;;;3.80;99.90;;;;;;5021038;28;20056;-33
2024/01/25 06:22:02;;;;;;;34.00;5.47;;;3.80;99.90;;;;;;5027401;28;20136;-33
2024/01/25 06:24:28;;;;;;;32.90;5.28;;;3.80;99.90;;;;;;5021069;28;20103;-34
2024/01/25 06:26:54;;;;;;;26.05;4.20;;;3.80;99.90;;;;;;5023636;28;20041;-34
2024/01/25 06:29:20;;;;;;;34.80;5.32;;;3.90;99.90;;;;;;5026994;28;20052;-34
2024/01/25 06:31:46;;;;;;;20.55;4.28;;;3.80;99.90;;;;;;5027964;28;20049;-38
2024/01/25 06:34:12;;;;;;;28.27;4.50;;;3.80;99.90;;;;;;5022506;28;20107;-34
2024/01/25 06:36:38;;;;;;;29.30;4.55;;;3.70;99.90;;;;;;5025076;28;20048;-34
2024/01/25 06:39:06;;;;;;;28.27;4.45;;;3.70;99.90;;;;;;5023502;28;20566;-34
2024/01/25 06:41:32;;;;;;;23.67;4.03;;;3.70;99.90;;;;;;5026124;28;20050;-34
2024/01/25 06:43:59;;;;;;;23.00;4.20;;;3.70;99.90;;;;;;5027364;28;20068;-34
2024/01/25 06:46:25;;;;;;;30.20;4.38;;;3.60;99.90;;;;;;5020707;28;20053;-35
2024/01/25 06:48:51;;;;;;;35.40;4.85;;;3.60;99.90;;;;;;5021284;28;20102;-35
2024/01/25 06:51:17;;;;;;;30.95;5.15;;;3.60;99.90;;;;;;5025489;28;20554;-34
2024/01/25 06:53:43;;;;;;;30.15;4.50;;;3.50;99.90;;;;;;5022806;28;20041;-34
2024/01/25 06:56:08;;;;;;;22.17;4.07;;;3.50;99.90;;;;;;5028723;28;20540;-34
2024/01/25 06:58:34;;;;;;;25.52;4.65;;;3.50;99.90;;;;;;5031718;28;20041;-34
2024/01/25 07:01:00;;;;;;;33.13;4.97;;;3.50;99.90;;;;;;5020283;28;20057;-34
2024/01/25 07:03:26;;;;;;;28.30;4.28;;;3.40;99.90;;;;;;5024789;28;20108;-34
2024/01/25 07:05:51;;;;;;;26.27;4.63;;;3.50;99.90;;;;;;5025622;28;20721;-35
2024/01/25 07:08:17;;;;;;;29.15;4.50;;;3.40;99.90;;;;;;5020401;28;20053;-34
2024/01/25 07:10:44;;;;;;;30.48;5.60;;;3.40;99.90;;;;;;5027757;28;20121;-34
2024/01/25 07:13:10;;;;;;;32.67;4.82;;;3.40;99.90;;;;;;5024125;28;20061;-34
2024/01/25 07:15:36;;;;;;;22.83;4.65;;;3.30;99.90;;;;;;5021552;28;20053;-34
2024/01/25 07:18:01;;;;;;;25.88;3.85;;;3.30;99.90;;;;;;5026319;28;20054;-34
2024/01/25 07:20:27;;;;;;;24.98;4.82;;;3.40;99.90;;;;;;5022680;28;20557;-34
2024/01/25 07:22:53;;;;;;;25.83;3.90;;;3.30;99.90;;;;;;5022279;28;20062;-34
2024/01/25 07:25:19;;;;;;;25.02;4.15;;;3.30;99.90;;;;;;5026002;28;20088;-34
2024/01/25 07:27:45;;;;;;;25.20;4.32;;;3.30;99.90;;;;;;5029908;28;20380;-34
2024/01/25 07:30:12;;;;;;;19.08;4.63;;;3.40;99.90;;;;;;5025154;28;20506;-34
2024/01/25 07:32:39;;;;;;;28.92;4.25;;;3.40;99.90;;;;;;5019383;28;20357;-34
2024/01/25 07:35:05;;;;;;;18.15;3.40;;;3.30;99.90;;;;;;5017698;28;20060;-34
2024/01/25 07:37:31;;;;;;;26.55;5.18;;;3.40;99.90;;;;;;5019324;28;21280;-35
2024/01/25 07:39:57;;;;;;;23.35;3.80;;;3.30;99.90;;;;;;5033114;28;20172;-34
2024/01/25 07:42:22;;;;;;;22.27;3.80;;;3.30;99.90;;;;;;5025816;28;20053;-34
2024/01/25 07:44:48;;;;;;;28.23;4.68;;;3.30;99.90;;;;;;5028084;28;20122;-34
2024/01/25 07:47:15;;;;;;;27.77;4.63;;;3.30;99.90;;;;;;5021935;28;20054;-34
2024/01/25 07:49:41;;;;;;;24.00;4.35;;;3.30;99.90;;;;;;5023005;28;20107;-35
2024/01/25 07:52:07;;;;;;;21.88;4.50;;;3.30;99.90;;;;;;5020828;28;20053;-34
2024/01/25 07:54:33;;;;;;;26.35;4.53;;;3.30;99.90;;;;;;5000093;28;20041;-34
2024/01/25 07:56:59;;;;;;;29.60;4.78;;;3.20;99.90;;;;;;5001244;28;20495;-35
2024/01/25 07:59:25;;;;;;;24.30;4.00;;;3.20;99.90;;;;;;5028686;28;20057;-35
2024/01/25 08:02:00;;;;;;;19.23;3.70;;;3.20;99.90;;;;;;5019618;28;20037;-35
2024/01/25 08:04:26;;;;;;;19.10;3.72;;;3.20;99.90;;;;;;5026621;28;20060;-34
2024/01/25 08:06:52;;;;;;;22.63;4.30;;;3.30;99.90;;;;;;5027076;28;20042;-34
2024/01/25 08:09:18;;;;;;;24.10;3.72;;;3.30;99.90;;;;;;5024024;28;20689;-35
2024/01/25 08:11:44;;;;;;;22.45;4.07;;;3.30;99.90;;;;;;5024458;28;20123;-34
2024/01/25 08:14:11;;;;;;;19.77;3.53;;;3.30;99.90;;;;;;5022219;28;20518;-34
2024/01/25 08:16:37;;;;;;;24.05;4.55;;;3.40;99.90;;;;;;5021087;28;20072;-34
2024/01/25 08:19:03;;;;;;;17.60;4.10;;;3.40;99.90;;;;;;5033217;28;20053;-35
2024/01/25 08:21:28;;;;;;;22.75;4.78;;;3.40;99.90;;;;;;5029353;28;20053;-35
2024/01/25 08:23:54;;;;;;;27.30;3.88;;;3.40;99.90;;;;;;5025935;28;20473;-34
2024/01/25 08:26:20;;;;;;;27.25;5.00;;;3.50;99.90;;;;;;5032463;28;20569;-35
2024/01/25 08:28:46;;;;;;;26.55;5.43;;;3.50;99.90;;;;;;5025622;28;20042;-35
2024/01/25 08:31:12;;;;;;;25.98;4.25;;;3.50;99.90;;;;;;5015772;28;20051;-33
2024/01/25 08:33:44;;;;;;;27.95;4.50;;;3.50;99.90;;;;;;5030080;28;20119;-34
2024/01/25 08:36:10;;;;;;;29.75;4.95;;;3.50;99.90;;;;;;5030184;28;20140;-35
2024/01/25 08:38:36;;;;;;;30.85;5.20;;;3.60;99.90;;;;;;5025883;28;20053;-36
2024/01/25 08:41:02;;;;;;;28.73;4.50;;;3.60;99.90;;;;;;5026937;28;20202;-34
2024/01/25 08:43:27;;;;;;;29.73;4.90;;;3.60;99.90;;;;;;5025209;28;20060;-34
2024/01/25 08:45:54;;;;;;;31.20;4.63;;;3.70;99.90;;;;;;5015285;28;20054;-34
2024/01/25 08:48:19;;;;;;;33.88;4.80;;;3.70;99.90;;;;;;5028781;28;20045;-34
2024/01/25 08:50:45;;;;;;;29.13;4.90;;;3.70;99.90;;;;;;5025977;28;20580;-35
2024/01/25 08:53:11;;;;;;;34.53;4.80;;;3.80;99.90;;;;;;5025438;28;20136;-34
2024/01/25 08:55:37;;;;;;;25.92;4.32;;;3.80;99.90;;;;;;5031249;28;20049;-34
2024/01/25 08:58:02;;;;;;;27.40;4.32;;;3.90;99.90;;;;;;5029126;28;20056;-34
2024/01/25 09:00:28;;;;;;;22.08;4.57;;;3.90;99.90;;;;;;5020586;28;20114;-35
2024/01/25 09:02:54;;;;;;;25.95;5.03;;;4.00;99.90;;;;;;5028025;28;20058;-35
2024/01/25 09:05:19;;;;;;;25.33;4.47;;;4.00;99.90;;;;;;5027514;28;20053;-35
2024/01/25 09:07:45;;;;;;;33.75;5.38;;;4.10;99.90;;;;;;5031227;28;20056;-35
2024/01/25 09:10:11;;;;;;;27.20;5.75;;;4.10;99.90;;;;;;5022239;28;20392;-34
2024/01/25 09:12:38;;;;;;;26.35;4.55;;;4.10;99.90;;;;;;5027265;28;20049;-34
2024/01/25 09:15:04;;;;;;;26.20;4.82;;;4.20;99.90;;;;;;5020245;28;20054;-34
2024/01/25 09:17:30;;;;;;;29.65;5.05;;;4.20;99.90;;;;;;5020627;28;21113;-34
2024/01/25 09:19:58;;;;;;;27.00;4.75;;;4.30;99.90;;;;;;5022346;28;20473;-37
2024/01/25 09:22:24;;;;;;;19.05;4.10;;;4.30;99.90;;;;;;5018051;28;20142;-34
2024/01/25 09:24:50;;;;;;;32.28;5.13;;;4.40;99.90;;;;;;5030748;28;20053;-34
2024/01/25 09:27:16;;;;;;;24.80;4.68;;;4.40;99.90;;;;;;5032565;28;20447;-35
2024/01/25 09:29:42;;;;;;;23.17;4.07;;;4.50;99.90;;;;;;5025307;28;20050;-35
2024/01/25 09:32:08;;;;;;;22.48;4.35;;;4.60;99.90;;;;;;5023440;28;20149;-35
2024/01/25 09:34:38;;;;;;;29.27;4.97;;;4.60;99.90;;;;;;5012080;28;20061;-35
2024/01/25 09:37:04;;;;;;;22.58;4.35;;;4.70;99.90;;;;;;5028238;28;20158;-35
2024/01/25 09:39:32;;;;;;;24.85;4.57;;;4.70;99.90;;;;;;5026901;28;20049;-35
2024/01/25 09:41:57;;;;;;;24.00;4.90;;;4.80;99.90;;;;;;5027519;28;20049;-35
2024/01/25 09:44:23;;;;;;;20.67;4.38;;;4.80;99.90;;;;;;5023425;28;20410;-35
2024/01/25 09:46:50;;;;;;;21.05;4.05;;;4.90;99.90;;;;;;5021853;28;20042;-35
2024/01/25 09:49:17;;;;;;;20.10;4.70;;;4.90;99.90;;;;;;5024961;28;20049;-34
2024/01/25 09:51:45;;;;;;;26.20;4.85;;;5.00;99.90;;;;;;5026850;28;20107;-34
2024/01/25 09:54:11;;;;;;;31.42;5.05;;;5.00;99.90;;;;;;5022429;28;20054;-35
2024/01/25 09:56:39;;;;;;;24.00;4.55;;;5.10;99.90;;;;;;5030352;28;20053;-34
2024/01/25 09:59:05;;;;;;;23.20;5.10;;;5.10;99.90;;;;;;5032793;28;20595;-35
2024/01/25 10:01:31;;;;;;;22.48;4.32;;;5.10;99.90;;;;;;5035975;28;20052;-34
2024/01/25 10:03:57;;;;;;;24.05;4.63;;;5.20;99.90;;;;;;5033954;28;20152;-34
2024/01/25 10:06:23;;;;;;;21.52;4.40;;;5.30;99.90;;;;;;5032900;28;20107;-34
2024/01/25 10:08:49;;;;;;;24.40;4.82;;;5.30;99.90;;;;;;5035639;28;20081;-34
2024/01/25 10:11:16;;;;;;;21.10;5.18;;;5.40;99.90;;;;;;5031974;28;20436;-34
2024/01/25 10:13:42;;;;;;;22.00;4.47;;;5.50;99.90;;;;;;5020167;28;20145;-34
2024/01/25 10:16:12;;;;;;;27.10;4.18;;;5.60;99.90;;;;;;5034338;28;20062;-34
2024/01/25 10:18:39;;;;;;;27.20;4.72;;;5.60;99.90;;;;;;5016774;28;20183;-35
2024/01/25 10:21:06;;;;;;;24.38;4.95;;;5.70;99.90;;;;;;5019986;28;20053;-34
2024/01/25 10:23:32;;;;;;;23.20;4.18;;;5.80;99.90;;;;;;5018108;28;20577;-34
2024/01/25 10:25:58;;;;;;;27.35;5.47;;;5.90;99.90;;;;;;5019516;28;20055;-34
2024/01/25 10:28:28;;;;;;;31.75;5.55;;;5.90;99.90;;;;;;5027384;28;21513;-33
2024/01/25 10:31:01;;;;;;;30.65;5.18;;;6.00;99.90;;;;;;5028887;28;20169;-34
2024/01/25 10:33:27;;;;;;;24.05;4.88;;;6.00;99.90;;;;;;5016228;28;20045;-34
2024/01/25 10:36:03;;;;;;;28.75;4.90;;;6.20;99.90;;;;;;5028923;28;20057;-35
2024/01/25 10:38:37;;;;;;;24.75;5.85;;;6.20;99.90;;;;;;5025087;28;20049;-35
2024/01/25 10:41:05;;;;;;;33.03;5.10;;;6.30;99.90;;;;;;5003170;28;20037;-35
2024/01/25 10:43:31;;;;;;;24.48;4.57;;;6.30;99.90;;;;;;5010781;28;20058;-34
2024/01/25 10:45:58;;;;;;;25.48;4.93;;;6.40;99.90;;;;;;5028367;28;20042;-34
2024/01/25 10:48:29;;;;;;;21.20;4.72;;;6.40;99.90;;;;;;5023847;28;20120;-34
2024/01/25 10:50:56;;;;;;;22.83;4.88;;;6.40;99.90;;;;;;5028177;28;20111;-35
2024/01/25 10:53:23;;;;;;;21.83;5.65;;;6.40;99.90;;;;;;5026738;28;20048;-35
2024/01/25 10:55:50;;;;;;;29.20;5.85;;;6.40;99.90;;;;;;5028155;28;20071;-35
2024/01/25 10:58:16;;;;;;;26.20;5.97;;;6.40;99.90;;;;;;5023049;28;20152;-35
2024/01/25 11:00:55;;;;;;;29.98;6.43;;;6.40;99.90;;;;;;5024873;28;20065;-35
2024/01/25 11:03:26;;;;;;;28.05;5.85;;;6.40;99.90;;;;;;5028941;28;20061;-35
2024/01/25 11:05:54;;;;;;;32.85;5.85;;;6.50;99.90;;;;;;5026094;28;20060;-34
2024/01/25 11:08:20;;;;;;;29.88;5.43;;;6.60;99.90;;;;;;5029316;28;20063;-35
2024/01/25 11:10:51;;;;;;;23.23;5.15;;;6.60;99.90;;;;;;5029427;28;20049;-35
2024/01/25 11:13:25;;;;;;;25.13;5.40;;;6.70;99.90;;;;;;5027075;28;20419;-34
2024/01/25 11:15:51;;;;;;;28.02;5.95;;;6.80;99.90;;;;;;5028558;28;20144;-35
2024/01/25 11:18:17;;;;;;;26.55;5.35;;;7.00;99.90;;;;;;5023165;28;20045;-35
2024/01/25 11:20:47;;;;;;;23.70;5.57;;;7.10;99.90;;;;;;5023955;28;20050;-35
2024/01/25 11:23:15;;;;;;;19.92;4.90;;;7.30;99.90;;;;;;5014578;28;20136;-36
2024/01/25 11:25:45;;;;;;;20.08;4.20;;;7.40;99.90;;;;;;5028368;28;20059;-35
2024/01/25 11:28:11;;;;;;;22.38;4.30;;;7.40;99.90;;;;;;5029547;28;20490;-36
2024/01/25 11:30:37;;;;;;;21.80;5.03;;;7.50;99.90;;;;;;5025016;28;20041;-34
2024/01/25 11:33:09;;;;;;;21.58;4.70;;;7.60;99.90;;;;;;5034407;28;20057;-35
2024/01/25 11:35:35;;;;;;;20.25;4.32;;;7.60;99.90;;;;;;5037875;28;20061;-35
2024/01/25 11:38:01;;;;;;;24.08;4.53;;;7.80;99.90;;;;;;5029486;28;20053;-34
2024/01/25 11:40:31;;;;;;;25.73;5.05;;;8.10;99.90;;;;;;5016818;28;20111;-35
2024/01/25 11:42:57;;;;;;;22.00;4.13;;;8.20;99.90;;;;;;5039617;28;20053;-35
2024/01/25 11:45:23;;;;;;;23.05;4.70;;;8.40;99.90;;;;;;5028922;28;20868;-36
2024/01/25 11:47:49;;;;;;;22.48;5.22;;;8.50;99.90;;;;;;5028837;28;20477;-35
2024/01/25 11:50:15;;;;;;;21.45;4.75;;;8.40;99.90;;;;;;5032011;28;20106;-35
2024/01/25 11:52:41;;;;;;;21.45;4.22;;;8.40;99.90;;;;;;5021481;28;20079;-36
2024/01/25 11:55:08;;;;;;;19.88;4.20;;;8.30;99.90;;;;;;5030259;28;20156;-36
2024/01/25 11:57:37;;;;;;;19.35;4.30;;;8.30;99.90;;;;;;5023776;28;20077;-37
2024/01/25 12:00:09;;;;;;;20.65;5.15;;;8.20;99.90;;;;;;5029743;28;20049;-34
2024/01/25 12:02:38;;;;;;;28.83;4.97;;;8.20;99.90;;;;;;5025725;28;20048;-35
2024/01/25 12:05:05;;;;;;;24.60;4.78;;;8.20;99.90;;;;;;5031375;28;20487;-33
2024/01/25 12:07:31;;;;;;;21.75;5.30;;;8.10;99.90;;;;;;5030743;28;20045;-35
2024/01/25 12:10:03;;;;;;;22.10;4.68;;;8.10;99.90;;;;;;5026394;28;20395;-36
2024/01/25 12:12:29;;;;;;;23.38;4.63;;;8.00;99.90;;;;;;5029867;28;20663;-36
2024/01/25 12:14:59;;;;;;;23.77;4.70;;;8.10;99.90;;;;;;5029724;28;20112;-36
2024/01/25 12:17:28;;;;;;;25.13;5.32;;;8.10;99.90;;;;;;5030719;28;20045;-35
2024/01/25 12:19:58;;;;;;;20.45;4.15;;;8.20;99.90;;;;;;5015176;28;20052;-36
2024/01/25 12:22:27;;;;;;;24.20;4.97;;;8.40;99.90;;;;;;5008494;28;20514;-35
2024/01/25 12:24:58;;;;;;;27.38;4.60;;;8.80;99.90;;;;;;5006635;28;20049;-35
2024/01/25 12:27:26;;;;;;;21.83;4.80;;;9.20;99.90;;;;;;5008003;28;20065;-35
2024/01/25 12:29:56;;;;;;;21.23;5.32;;;9.50;99.90;;;;;;4995289;28;20525;-34
2024/01/25 12:32:22;;;;;;;19.73;4.28;;;9.80;99.90;;;;;;5001596;28;20053;-34
2024/01/25 12:35:00;;;;;;;19.58;4.60;;;10.00;99.90;;;;;;5003013;28;20059;-35
2024/01/25 12:37:27;;;;;;;23.35;5.47;;;10.10;99.90;;;;;;5008120;28;20057;-35
2024/01/25 12:39:53;;;;;;;22.70;4.28;;;10.30;99.90;;;;;;4997156;28;20515;-35
2024/01/25 12:42:20;;;;;;;16.27;3.50;;;10.20;99.90;;;;;;5013521;28;20476;-35